createdAt,value
2023-03-21T00:01:54.199Z,39.95
2023-03-21T00:04:24.766Z,41.40
2023-03-21T00:06:53.095Z,42.75
2023-03-21T00:09:22.449Z,39.88
2023-03-21T00:11:50.711Z,41.78
2023-03-21T00:14:21.623Z,42.63
2023-03-21T00:16:50.927Z,42.20
2023-03-21T00:19:22.085Z,41.05
2023-03-21T00:22:06.449Z,42.30
2023-03-21T00:24:37.387Z,42.38
2023-03-21T00:29:53.373Z,45.53
2023-03-21T00:32:22.454Z,44.20
2023-03-21T00:35:38.364Z,43.90
2023-03-21T00:37:38.882Z,42.67
2023-03-21T00:40:16.338Z,45.03
2023-03-21T00:42:52.198Z,45.15
2023-03-21T00:45:32.575Z,44.42
2023-03-21T00:48:01.006Z,45.08
2023-03-21T00:50:29.203Z,44.35
2023-03-21T00:52:57.566Z,44.78
2023-03-21T00:55:26.085Z,43.95
2023-03-21T00:58:01.489Z,45.58
2023-03-21T01:00:30.752Z,43.17
2023-03-21T01:03:21.375Z,44.08
2023-03-21T01:06:13.096Z,42.83
2023-03-21T01:08:52.256Z,42.65
2023-03-21T01:11:26.109Z,42.55
2023-03-21T01:14:07.385Z,43.83
2023-03-21T01:16:39.762Z,43.60
2023-03-21T01:19:22.107Z,42.83
2023-03-21T01:21:52.967Z,42.80
2023-03-21T01:24:23.467Z,43.97
2023-03-21T01:26:59.065Z,44.05
2023-03-21T01:29:27.842Z,44.63
2023-03-21T01:31:56.509Z,43.78
2023-03-21T01:34:24.927Z,44.80
2023-03-21T01:36:53.433Z,45.95
2023-03-21T01:39:26.544Z,46.35
2023-03-21T01:41:57.810Z,45.00
2023-03-21T01:44:31.496Z,44.85
2023-03-21T01:47:17.184Z,45.15
2023-03-21T01:49:53.663Z,46.20
2023-03-21T01:52:37.021Z,42.95
2023-03-21T01:55:13.701Z,45.60
2023-03-21T01:58:04.436Z,46.78
2023-03-21T02:00:37.309Z,45.30
2023-03-21T02:03:18.910Z,42.97
2023-03-21T02:06:13.069Z,43.70
2023-03-21T02:08:42.704Z,41.17
2023-03-21T02:11:11.807Z,41.17
2023-03-21T02:13:41.731Z,41.70
2023-03-21T02:19:02.324Z,41.10
2023-03-21T02:21:52.049Z,38.38
2023-03-21T02:24:33.275Z,37.20
2023-03-21T02:27:12.331Z,39.00
2023-03-21T02:30:00.376Z,36.35
2023-03-21T02:32:41.574Z,36.00
2023-03-21T02:35:20.039Z,35.55
2023-03-21T02:38:02.728Z,37.78
2023-03-21T02:41:00.408Z,37.78
2023-03-21T02:43:56.081Z,33.97
2023-03-21T02:46:51.141Z,34.45
2023-03-21T02:49:43.674Z,34.80
2023-03-21T02:52:48.826Z,34.88
2023-03-21T02:55:27.648Z,33.63
2023-03-21T02:58:06.924Z,34.10
2023-03-21T03:00:55.707Z,33.63
2023-03-21T03:03:43.403Z,34.33
2023-03-21T03:06:37.289Z,35.33
2023-03-21T03:10:00.328Z,34.15
2023-03-21T03:12:57.208Z,35.60
2023-03-21T03:15:34.281Z,32.30
2023-03-21T03:18:18.416Z,31.10
2023-03-21T03:21:27.128Z,32.47
2023-03-21T03:24:17.427Z,30.73
2023-03-21T03:27:09.630Z,31.60
2023-03-21T03:36:28.366Z,32.88
2023-03-21T03:39:01.312Z,29.83
2023-03-21T03:41:56.249Z,31.08
2023-03-21T03:44:21.860Z,30.70
2023-03-21T03:47:17.462Z,30.55
2023-03-21T03:50:04.575Z,30.15
2023-03-21T03:52:41.939Z,29.92
2023-03-21T03:57:46.656Z,29.60
2023-03-21T04:03:39.225Z,29.33
2023-03-21T04:06:13.405Z,29.20
2023-03-21T04:08:41.505Z,28.35
2023-03-21T04:11:11.602Z,29.45
2023-03-21T04:13:40.470Z,29.02
2023-03-21T04:16:29.513Z,28.50
2023-03-21T04:18:57.745Z,28.30
2023-03-21T04:21:38.276Z,29.13
2023-03-21T04:24:10.844Z,29.17
2023-03-21T04:26:57.372Z,29.10
2023-03-21T04:29:25.642Z,27.33
2023-03-21T04:32:00.111Z,26.65
2023-03-21T04:34:32.315Z,27.42
2023-03-21T04:37:00.503Z,25.80
2023-03-21T04:39:30.830Z,24.98
2023-03-21T04:41:59.501Z,24.63
2023-03-21T04:44:29.138Z,26.10
2023-03-21T04:46:58.156Z,24.73
2023-03-21T04:49:29.765Z,23.30
2023-03-21T04:51:57.866Z,23.90
2023-03-21T04:54:35.274Z,25.70
2023-03-21T04:57:15.759Z,24.85
2023-03-21T04:59:48.055Z,25.30
2023-03-21T05:02:19.437Z,25.58
2023-03-21T05:04:50.245Z,26.00
2023-03-21T05:07:19.978Z,25.25
2023-03-21T05:09:48.140Z,24.23
2023-03-21T05:12:16.276Z,25.10
2023-03-21T05:14:44.310Z,25.42
2023-03-21T05:17:15.754Z,26.20
2023-03-21T05:19:43.986Z,23.55
2023-03-21T05:22:17.419Z,24.27
2023-03-21T05:24:50.360Z,23.30
2023-03-21T05:27:59.140Z,23.55
2023-03-21T05:30:28.102Z,24.70
2023-03-21T05:32:57.515Z,21.98
2023-03-21T05:35:34.335Z,22.33
2023-03-21T05:38:02.618Z,20.52
2023-03-21T05:40:30.947Z,20.52
2023-03-21T05:43:00.642Z,20.58
2023-03-21T05:47:59.452Z,20.30
2023-03-21T05:50:30.370Z,20.02
2023-03-21T05:52:59.390Z,19.38
2023-03-21T05:55:27.664Z,19.38
2023-03-21T05:57:56.192Z,19.13
2023-03-21T06:03:18.182Z,19.58
2023-03-21T06:05:46.634Z,20.73
2023-03-21T06:08:16.105Z,18.52
2023-03-21T06:10:44.303Z,19.75
2023-03-21T06:13:13.548Z,18.38
2023-03-21T06:15:43.212Z,19.50
2023-03-21T06:18:13.979Z,21.45
2023-03-21T06:20:42.510Z,19.83
2023-03-21T06:23:10.843Z,20.52
2023-03-21T06:25:39.368Z,20.23
2023-03-21T06:28:08.790Z,20.90
2023-03-21T06:30:38.363Z,21.77
2023-03-21T06:33:06.756Z,21.27
2023-03-21T06:35:38.230Z,19.60
2023-03-21T06:38:08.756Z,20.48
2023-03-21T06:40:40.433Z,21.02
2023-03-21T06:43:08.646Z,19.27
2023-03-21T06:45:48.004Z,20.50
2023-03-21T06:48:21.599Z,20.42
2023-03-21T06:51:01.599Z,19.10
2023-03-21T06:53:32.693Z,19.98
2023-03-21T06:56:07.372Z,19.35
2023-03-21T06:58:36.007Z,19.25
2023-03-21T07:01:06.554Z,20.70
2023-03-21T07:03:38.205Z,19.58
2023-03-21T07:06:14.714Z,21.77
2023-03-21T07:08:43.808Z,19.33
2023-03-21T07:11:12.686Z,19.77
2023-03-21T07:13:40.987Z,20.00
2023-03-21T07:16:13.211Z,20.92
2023-03-21T07:18:42.522Z,20.50
2023-03-21T07:21:11.522Z,21.13
2023-03-21T07:23:40.720Z,21.73
2023-03-21T07:26:13.398Z,19.67
2023-03-21T07:28:54.131Z,21.10
2023-03-21T07:31:40.681Z,23.20
2023-03-21T07:34:27.903Z,20.00
2023-03-21T07:36:58.225Z,19.77
2023-03-21T07:39:30.388Z,19.92
2023-03-21T07:41:58.553Z,20.02
2023-03-21T07:44:26.830Z,19.42
2023-03-21T07:46:55.458Z,18.15
2023-03-21T07:49:31.098Z,19.48
2023-03-21T07:52:04.718Z,20.20
2023-03-21T07:54:33.656Z,20.02
2023-03-21T07:57:07.503Z,18.98
2023-03-21T07:59:39.596Z,18.80
2023-03-21T08:02:14.374Z,18.30
2023-03-21T08:04:42.754Z,19.67
2023-03-21T08:07:12.039Z,19.38
2023-03-21T08:09:40.126Z,18.52
2023-03-21T08:12:09.471Z,20.00
2023-03-21T08:14:42.496Z,18.65
2023-03-21T08:17:12.047Z,18.40
2023-03-21T08:19:42.376Z,18.95
2023-03-21T08:22:12.347Z,19.65
2023-03-21T08:24:41.613Z,19.85
2023-03-21T08:27:11.310Z,20.15
2023-03-21T08:29:43.401Z,19.83
2023-03-21T08:33:02.253Z,19.00
2023-03-21T08:35:34.603Z,19.15
2023-03-21T08:38:06.208Z,18.95
2023-03-21T08:40:34.888Z,19.65
2023-03-21T08:43:03.203Z,18.80
2023-03-21T08:45:32.275Z,18.35
2023-03-21T08:48:00.632Z,18.23
2023-03-21T08:50:32.159Z,19.27
2023-03-21T08:53:01.439Z,18.88
2023-03-21T08:55:32.886Z,19.55
2023-03-21T08:58:02.272Z,20.00
2023-03-21T09:00:31.762Z,18.30
2023-03-21T09:03:00.308Z,19.20
2023-03-21T09:05:38.346Z,18.27
2023-03-21T09:08:07.882Z,18.00
2023-03-21T09:10:39.328Z,18.08
2023-03-21T09:13:13.384Z,17.67
2023-03-21T09:15:43.019Z,17.55
2023-03-21T09:20:46.157Z,17.38
2023-03-21T09:23:16.000Z,18.35
2023-03-21T09:25:47.063Z,16.70
2023-03-21T09:28:17.550Z,17.25
2023-03-21T09:30:45.994Z,17.48
2023-03-21T09:33:19.839Z,18.23
2023-03-21T09:35:49.089Z,17.95
2023-03-21T09:38:18.866Z,17.77
2023-03-21T09:41:19.540Z,18.10
2023-03-21T09:44:26.038Z,18.17
2023-03-21T09:47:14.145Z,17.10
2023-03-21T09:49:49.425Z,16.70
2023-03-21T09:52:33.442Z,17.85
2023-03-21T09:55:01.966Z,17.80
2023-03-21T09:57:49.423Z,16.60
2023-03-21T10:00:26.003Z,17.40
2023-03-21T10:03:20.182Z,18.17
2023-03-21T10:05:49.358Z,17.30
2023-03-21T10:08:34.461Z,18.30
2023-03-21T10:11:12.567Z,17.48
2023-03-21T10:13:52.114Z,18.45
2023-03-21T10:16:36.848Z,16.75
2023-03-21T10:19:16.923Z,17.35
2023-03-21T10:22:00.163Z,17.05
2023-03-21T10:24:33.451Z,18.00
2023-03-21T10:27:02.985Z,17.27
2023-03-21T10:29:44.960Z,17.63
2023-03-21T10:32:19.583Z,17.80
2023-03-21T10:34:52.694Z,17.75
2023-03-21T10:37:21.116Z,17.65
2023-03-21T10:39:52.402Z,17.92
2023-03-21T10:42:26.670Z,17.73
2023-03-21T10:44:58.476Z,17.15
2023-03-21T10:47:28.720Z,17.25
2023-03-21T10:50:07.620Z,17.48
2023-03-21T10:52:38.474Z,17.33
2023-03-21T10:55:34.369Z,17.70
2023-03-21T10:58:11.863Z,18.63
2023-03-21T11:00:42.896Z,17.63
2023-03-21T11:03:33.827Z,18.30
2023-03-21T11:06:31.313Z,18.50
2023-03-21T11:09:09.544Z,18.20
2023-03-21T11:12:02.024Z,18.23
2023-03-21T11:14:47.889Z,18.80
2023-03-21T11:17:18.781Z,18.95
2023-03-21T11:20:02.321Z,20.35
2023-03-21T11:22:39.566Z,19.38
2023-03-21T11:25:16.372Z,19.23
2023-03-21T11:27:56.119Z,18.92
2023-03-21T11:30:28.324Z,18.23
2023-03-21T11:32:58.808Z,19.15
2023-03-21T11:35:34.909Z,19.48
2023-03-21T11:38:03.077Z,18.77
2023-03-21T11:40:37.382Z,18.67
2023-03-21T11:43:29.711Z,19.15
2023-03-21T11:46:04.905Z,20.17
2023-03-21T11:48:49.113Z,19.73
2023-03-21T11:51:49.835Z,19.48
2023-03-21T11:54:21.088Z,18.17
2023-03-21T11:56:57.267Z,18.98
2023-03-21T11:59:40.117Z,19.20
2023-03-21T12:03:01.267Z,19.60
2023-03-21T12:05:38.707Z,19.40
2023-03-21T12:08:15.852Z,18.88
2023-03-21T12:11:14.573Z,18.40
2023-03-21T12:14:07.538Z,21.38
2023-03-21T12:16:51.325Z,20.67
2023-03-21T12:19:44.466Z,20.00
2023-03-21T12:22:42.884Z,19.48
2023-03-21T12:25:43.680Z,19.70
2023-03-21T12:28:33.147Z,20.20
2023-03-21T12:33:57.858Z,21.73
2023-03-21T12:37:04.143Z,22.30
2023-03-21T12:39:39.145Z,21.42
2023-03-21T12:42:07.144Z,23.45
2023-03-21T12:44:39.474Z,21.88
2023-03-21T12:47:36.134Z,21.73
2023-03-21T12:50:38.422Z,21.90
2023-03-21T12:53:34.747Z,20.85
2023-03-21T12:56:07.598Z,21.92
2023-03-21T12:59:07.593Z,21.50
2023-03-21T13:01:40.111Z,22.02
2023-03-21T13:04:30.189Z,21.92
2023-03-21T13:07:02.633Z,19.77
2023-03-21T13:09:38.533Z,21.40
2023-03-21T13:12:26.571Z,21.60
2023-03-21T13:15:29.677Z,21.27
2023-03-21T13:18:16.065Z,21.13
2023-03-21T13:21:06.208Z,22.48
2023-03-21T13:23:40.157Z,22.17
2023-03-21T13:26:12.880Z,21.58
2023-03-21T13:28:42.463Z,22.33
2023-03-21T13:31:19.247Z,21.20
2023-03-21T13:33:53.008Z,21.45
2023-03-21T13:36:27.037Z,19.63
2023-03-21T13:39:00.868Z,21.05
2023-03-21T13:41:34.752Z,21.30
2023-03-21T13:44:06.124Z,21.42
2023-03-21T13:46:53.499Z,21.50
2023-03-21T13:49:29.595Z,21.52
2023-03-21T13:52:00.327Z,21.90
2023-03-21T13:54:53.720Z,21.80
2023-03-21T13:57:39.235Z,20.77
2023-03-21T14:00:21.373Z,20.73
2023-03-21T14:03:08.975Z,21.00
2023-03-21T14:05:38.990Z,22.80
2023-03-21T14:08:15.559Z,22.40
2023-03-21T14:10:50.305Z,22.90
2023-03-21T14:13:21.905Z,22.60
2023-03-21T14:16:07.958Z,22.40
2023-03-21T14:19:01.447Z,21.88
2023-03-21T14:21:33.696Z,22.80
2023-03-21T14:24:14.339Z,22.10
2023-03-21T14:26:46.903Z,21.83
2023-03-21T14:29:33.844Z,21.58
2023-03-21T14:32:02.866Z,22.08
2023-03-21T14:34:33.781Z,22.67
2023-03-21T14:37:02.813Z,22.63
2023-03-21T14:39:34.385Z,21.83
2023-03-21T14:42:06.409Z,22.90
2023-03-21T14:44:56.164Z,23.42
2023-03-21T14:47:29.630Z,22.83
2023-03-21T14:49:58.895Z,22.50
2023-03-21T14:52:32.650Z,22.10
2023-03-21T14:55:04.336Z,22.92
2023-03-21T14:57:33.841Z,22.75
2023-03-21T15:00:13.028Z,22.88
2023-03-21T15:02:43.668Z,22.83
2023-03-21T15:05:24.136Z,22.50
2023-03-21T15:07:58.480Z,22.23
2023-03-21T15:10:30.179Z,23.38
2023-03-21T15:13:01.133Z,22.40
2023-03-21T15:15:30.995Z,22.95
2023-03-21T15:20:34.556Z,22.88
2023-03-21T15:23:09.676Z,23.13
2023-03-21T15:25:40.397Z,23.65
2023-03-21T15:28:08.790Z,24.90
2023-03-21T15:30:37.709Z,23.00
2023-03-21T15:33:13.493Z,24.93
2023-03-21T15:35:57.756Z,23.35
2023-03-21T15:38:31.705Z,25.45
2023-03-21T15:41:16.552Z,24.85
2023-03-21T15:43:44.855Z,23.13
2023-03-21T15:46:19.185Z,24.67
2023-03-21T15:48:47.203Z,23.67
2023-03-21T15:51:25.234Z,24.25
2023-03-21T15:53:56.826Z,24.65
2023-03-21T15:56:25.368Z,24.40
2023-03-21T15:58:54.760Z,24.67
2023-03-21T16:01:26.618Z,24.73
2023-03-21T16:04:08.465Z,25.05
2023-03-21T16:06:40.579Z,24.70
2023-03-21T16:09:22.309Z,24.50
2023-03-21T16:11:59.317Z,26.05
2023-03-21T16:14:28.151Z,26.40
2023-03-21T16:16:57.775Z,25.52
2023-03-21T16:19:27.872Z,25.33
2023-03-21T16:21:55.805Z,25.40
2023-03-21T16:24:23.844Z,26.40
2023-03-21T16:26:52.360Z,25.70
2023-03-21T16:29:20.718Z,25.60
2023-03-21T16:31:49.513Z,25.23
2023-03-21T16:34:17.459Z,26.92
2023-03-21T16:36:45.565Z,25.48
2023-03-21T16:39:22.126Z,26.40
2023-03-21T16:41:51.179Z,26.50
2023-03-21T16:44:20.585Z,25.77
2023-03-21T16:46:49.759Z,27.35
2023-03-21T16:49:19.521Z,29.67
2023-03-21T16:51:47.570Z,30.70
2023-03-21T16:54:15.680Z,31.52
2023-03-21T16:56:50.873Z,30.50
2023-03-21T16:59:19.430Z,32.30
2023-03-21T17:01:48.877Z,31.80
2023-03-21T17:04:19.559Z,31.85
2023-03-21T17:06:51.425Z,31.80
2023-03-21T17:09:22.714Z,30.80
2023-03-21T17:11:51.180Z,33.25
2023-03-21T17:14:22.176Z,32.95
2023-03-21T17:16:50.320Z,31.55
2023-03-21T17:19:20.846Z,33.80
2023-03-21T17:21:48.803Z,31.17
2023-03-21T17:24:17.075Z,31.13
2023-03-21T17:26:45.475Z,32.47
2023-03-21T17:29:16.864Z,33.78
2023-03-21T17:31:47.646Z,32.22
2023-03-21T17:34:16.272Z,32.17
2023-03-21T17:36:46.622Z,32.72
2023-03-21T17:39:22.847Z,33.10
2023-03-21T17:41:52.412Z,34.25
2023-03-21T17:44:21.308Z,33.17
2023-03-21T17:46:51.591Z,32.95
2023-03-21T17:49:21.379Z,31.88
2023-03-21T17:51:50.650Z,32.85
2023-03-21T17:54:18.591Z,31.27
2023-03-21T17:56:46.552Z,30.92
2023-03-21T17:59:15.050Z,30.05
2023-03-21T18:01:43.233Z,31.15
2023-03-21T18:04:11.406Z,30.98
2023-03-21T18:06:39.659Z,30.85
2023-03-21T18:09:11.741Z,31.48
2023-03-21T18:11:41.452Z,31.25
2023-03-21T18:14:17.613Z,30.80
2023-03-21T18:16:47.888Z,31.38
2023-03-21T18:19:15.901Z,30.17
2023-03-21T18:21:45.872Z,30.60
2023-03-21T18:24:14.877Z,30.48
2023-03-21T18:26:45.994Z,31.33
2023-03-21T18:30:17.539Z,29.65
2023-03-21T18:32:08.571Z,32.10
2023-03-21T18:37:08.017Z,31.60
2023-03-21T18:39:37.826Z,30.45
2023-03-21T18:42:07.060Z,32.20
2023-03-21T18:44:46.361Z,31.60
2023-03-21T18:47:15.121Z,31.10
2023-03-21T18:52:32.228Z,31.42
2023-03-21T18:55:00.230Z,31.10
2023-03-21T18:57:36.432Z,31.92
2023-03-21T19:00:13.161Z,31.08
2023-03-21T19:02:46.888Z,31.52
2023-03-21T19:05:20.755Z,33.00
2023-03-21T19:07:49.639Z,31.92
2023-03-21T19:10:21.518Z,31.95
2023-03-21T19:12:55.183Z,31.38
2023-03-21T19:15:25.114Z,33.28
2023-03-21T19:18:33.065Z,32.90
2023-03-21T19:20:45.327Z,32.00
2023-03-21T19:23:13.376Z,31.30
2023-03-21T19:25:43.769Z,31.70
2023-03-21T19:28:12.049Z,29.88
2023-03-21T19:30:44.345Z,33.15
2023-03-21T19:33:17.277Z,31.70
2023-03-21T19:35:46.572Z,32.70
2023-03-21T19:38:14.630Z,32.08
2023-03-21T19:40:44.092Z,32.78
2023-03-21T19:43:31.591Z,33.75
2023-03-21T19:46:01.082Z,34.05
2023-03-21T19:48:29.628Z,33.47
2023-03-21T19:51:26.290Z,33.08
2023-03-21T19:53:45.921Z,31.92
2023-03-21T19:56:21.865Z,31.25
2023-03-21T19:58:52.092Z,32.85
2023-03-21T20:01:20.084Z,32.28
2023-03-21T20:03:48.143Z,32.25
2023-03-21T20:06:17.170Z,32.95
2023-03-21T20:11:33.129Z,32.80
2023-03-21T20:14:03.440Z,34.13
2023-03-21T20:16:35.296Z,33.88
2023-03-21T20:19:10.417Z,33.33
2023-03-21T20:21:48.611Z,34.10
2023-03-21T20:24:21.308Z,34.53
2023-03-21T20:26:53.799Z,36.22
2023-03-21T20:32:10.228Z,36.88
2023-03-21T20:34:38.524Z,36.00
2023-03-21T20:37:07.351Z,36.90
2023-03-21T20:39:35.740Z,37.75
2023-03-21T20:42:05.417Z,34.83
2023-03-21T20:47:21.562Z,36.55
2023-03-21T20:49:49.944Z,35.55
2023-03-21T20:55:09.222Z,34.17
2023-03-21T20:57:38.697Z,35.47
2023-03-21T21:00:14.066Z,34.08
2023-03-21T21:02:46.511Z,35.55
2023-03-21T21:05:26.026Z,34.35
2023-03-21T21:07:56.991Z,34.80
2023-03-21T21:10:25.911Z,34.85
2023-03-21T21:12:54.136Z,34.13
2023-03-21T21:15:22.310Z,35.22
2023-03-21T21:18:08.578Z,35.65
2023-03-21T21:20:38.089Z,34.90
2023-03-21T21:23:06.743Z,35.47
2023-03-21T21:25:35.362Z,35.65
2023-03-21T21:28:09.282Z,34.85
2023-03-21T21:30:41.728Z,35.92
2023-03-21T21:33:10.402Z,35.20
2023-03-21T21:35:38.809Z,35.85
2023-03-21T21:38:07.203Z,37.47
2023-03-21T21:40:35.264Z,34.85
2023-03-21T21:43:04.095Z,35.20
2023-03-21T21:45:32.475Z,36.97
2023-03-21T21:48:00.965Z,36.47
2023-03-21T21:50:29.855Z,37.28
2023-03-21T21:52:58.122Z,38.17
2023-03-21T21:55:26.175Z,36.30
2023-03-21T21:57:58.201Z,37.15
2023-03-21T22:00:28.747Z,37.08
2023-03-21T22:02:57.436Z,37.65
2023-03-21T22:05:26.472Z,37.33
2023-03-21T22:07:56.761Z,37.05
2023-03-21T22:10:27.495Z,37.83
2023-03-21T22:12:55.523Z,37.47
2023-03-21T22:15:24.079Z,36.65
2023-03-21T22:17:52.187Z,38.05
2023-03-21T22:20:22.019Z,39.08
2023-03-21T22:22:50.185Z,38.33
2023-03-21T22:25:18.654Z,37.97
2023-03-21T22:27:46.926Z,37.80
2023-03-21T22:30:17.981Z,37.97
2023-03-21T22:33:02.510Z,37.28
2023-03-21T22:35:34.709Z,37.78
2023-03-21T22:38:02.715Z,36.67
2023-03-21T22:40:30.742Z,37.55
2023-03-21T22:42:58.764Z,37.78
2023-03-21T22:45:26.773Z,38.88
2023-03-21T22:47:54.807Z,36.60
2023-03-21T22:50:22.816Z,37.55
2023-03-21T22:52:51.346Z,37.53
2023-03-21T22:55:19.389Z,37.85
2023-03-21T22:57:47.745Z,37.17
2023-03-21T23:00:16.559Z,39.22
2023-03-21T23:02:45.340Z,37.15
2023-03-21T23:05:14.170Z,38.05
2023-03-21T23:07:42.145Z,37.65
2023-03-21T23:10:12.485Z,39.70
2023-03-21T23:12:41.210Z,36.95
2023-03-21T23:15:10.225Z,38.75
2023-03-21T23:17:38.272Z,38.65
2023-03-21T23:20:08.110Z,36.85
2023-03-21T23:22:37.063Z,37.78
2023-03-21T23:25:05.542Z,36.85
2023-03-21T23:27:35.501Z,38.08
2023-03-21T23:32:32.905Z,37.13
2023-03-21T23:35:01.239Z,38.40
2023-03-21T23:37:33.020Z,40.47
2023-03-21T23:40:01.137Z,39.58
2023-03-21T23:42:30.886Z,40.55
2023-03-21T23:44:59.123Z,40.17
2023-03-21T23:47:27.137Z,41.60
2023-03-21T23:49:55.170Z,43.00
2023-03-21T23:52:23.449Z,44.85
2023-03-21T23:54:51.469Z,46.47
2023-03-21T23:57:19.521Z,43.78
2023-03-21T23:59:47.531Z,43.03
